createdAt,value
2023-07-20T00:00:55.045Z,10.30
2023-07-20T00:06:09.371Z,8.90
2023-07-20T00:11:14.981Z,9.50
2023-07-20T00:16:18.255Z,8.60
2023-07-20T00:21:21.480Z,9.40
2023-07-20T00:31:28.410Z,9.10
2023-07-20T00:36:31.827Z,8.00
2023-07-20T00:41:35.231Z,7.80
2023-07-20T00:46:38.662Z,8.60
2023-07-20T00:51:43.079Z,10.50
2023-07-20T00:56:47.320Z,14.70
2023-07-20T01:01:50.753Z,19.20
2023-07-20T01:07:17.589Z,9.90
2023-07-20T01:12:29.911Z,9.80
2023-07-20T01:17:33.426Z,8.00
2023-07-20T01:23:11.124Z,9.50
2023-07-20T01:28:33.212Z,8.30
2023-07-20T01:33:37.836Z,8.60
2023-07-20T01:38:41.869Z,7.40
2023-07-20T01:43:45.685Z,10.50
2023-07-20T01:48:49.166Z,7.70
2023-07-20T01:53:52.410Z,10.30
2023-07-20T01:58:55.618Z,8.00
2023-07-20T02:09:02.247Z,8.30
2023-07-20T02:14:05.556Z,9.00
2023-07-20T02:19:09.066Z,11.00
2023-07-20T02:24:14.156Z,9.00
2023-07-20T02:29:17.336Z,7.50
2023-07-20T02:39:23.644Z,7.50
2023-07-20T02:49:30.063Z,7.20
2023-07-20T02:54:33.273Z,6.00
2023-07-20T03:04:39.700Z,5.40
2023-07-20T03:09:43.197Z,6.40
2023-07-20T03:14:46.304Z,8.40
2023-07-20T03:24:53.753Z,5.60
2023-07-20T03:29:57.159Z,6.30
2023-07-20T03:35:00.466Z,8.50
2023-07-20T03:40:04.499Z,6.70
2023-07-20T03:45:08.916Z,6.00
2023-07-20T03:50:12.355Z,5.90
2023-07-20T03:55:15.630Z,6.90
2023-07-20T04:00:19.785Z,6.90
2023-07-20T04:05:23.110Z,7.40
2023-07-20T04:10:26.613Z,10.80
2023-07-20T04:15:29.784Z,8.60
2023-07-20T04:20:33.143Z,6.80
2023-07-20T04:25:40.904Z,6.80
2023-07-20T04:30:44.533Z,5.50
2023-07-20T04:35:53.324Z,6.00
2023-07-20T04:40:57.229Z,5.30
2023-07-20T04:46:00.975Z,6.40
2023-07-20T04:51:04.669Z,6.60
2023-07-20T04:56:07.881Z,5.20
2023-07-20T05:01:11.188Z,5.00
2023-07-20T05:06:14.601Z,4.90
2023-07-20T05:11:18.218Z,4.40
2023-07-20T05:16:21.841Z,5.90
2023-07-20T05:21:25.561Z,4.90
2023-07-20T05:26:28.766Z,6.70
2023-07-20T05:31:33.129Z,5.40
2023-07-20T05:36:36.641Z,3.60
2023-07-20T05:41:39.932Z,4.00
2023-07-20T05:46:56.227Z,5.20
2023-07-20T05:52:02.536Z,4.80
2023-07-20T05:57:06.352Z,3.70
2023-07-20T06:02:09.966Z,2.70
2023-07-20T06:07:13.381Z,4.00
2023-07-20T06:12:16.894Z,2.50
2023-07-20T06:17:20.255Z,3.80
2023-07-20T06:22:23.727Z,2.60
2023-07-20T06:27:27.024Z,8.80
2023-07-20T06:32:30.544Z,2.80
2023-07-20T06:37:34.466Z,4.40
2023-07-20T06:47:44.910Z,4.20
2023-07-20T06:52:49.551Z,3.00
2023-07-20T06:57:58.869Z,3.30
2023-07-20T07:03:02.751Z,3.30
2023-07-20T07:08:06.865Z,3.40
2023-07-20T07:13:10.245Z,2.40
2023-07-20T07:18:13.503Z,2.20
2023-07-20T07:23:16.909Z,3.60
2023-07-20T07:28:20.373Z,1.60
2023-07-20T07:33:23.584Z,2.20
2023-07-20T07:43:36.358Z,3.80
2023-07-20T07:48:39.967Z,2.20
2023-07-20T07:53:43.799Z,1.80
2023-07-20T07:58:47.113Z,3.30
2023-07-20T08:03:50.785Z,1.80
2023-07-20T08:08:54.055Z,2.10
2023-07-20T08:13:57.958Z,1.70
2023-07-20T08:19:01.323Z,1.90
2023-07-20T08:24:05.520Z,6.20
2023-07-20T08:29:08.812Z,4.70
2023-07-20T08:34:24.409Z,3.00
2023-07-20T08:39:33.655Z,8.50
2023-07-20T08:44:40.009Z,3.50
2023-07-20T08:49:44.145Z,2.90
2023-07-20T08:54:47.916Z,2.60
2023-07-20T08:59:54.111Z,1.60
2023-07-20T09:04:57.776Z,2.20
2023-07-20T09:10:01.305Z,1.30
2023-07-20T09:15:07.816Z,2.10
2023-07-20T09:20:12.368Z,1.40
2023-07-20T09:25:17.896Z,2.70
2023-07-20T09:30:31.611Z,2.60
2023-07-20T09:35:43.157Z,1.90
2023-07-20T09:46:00.000Z,2.70
2023-07-20T09:51:03.628Z,4.10
2023-07-20T09:56:08.432Z,3.10
2023-07-20T10:01:15.759Z,3.10
2023-07-20T10:06:25.124Z,1.40
2023-07-20T10:11:32.024Z,4.50
2023-07-20T10:16:49.990Z,1.40
2023-07-20T10:22:04.602Z,2.70
2023-07-20T10:27:08.889Z,2.10
2023-07-20T10:32:12.755Z,3.00
2023-07-20T10:37:50.744Z,3.90
2023-07-20T10:43:11.263Z,1.40
2023-07-20T10:48:20.846Z,3.30
2023-07-20T10:53:24.120Z,1.70
2023-07-20T10:58:30.195Z,1.80
2023-07-20T11:03:38.314Z,1.90
2023-07-20T11:08:43.321Z,1.90
2023-07-20T11:13:58.882Z,2.30
2023-07-20T11:19:03.298Z,1.80
2023-07-20T11:24:07.861Z,1.20
2023-07-20T11:29:20.995Z,2.20
2023-07-20T11:34:31.363Z,1.20
2023-07-20T11:39:34.572Z,1.40
2023-07-20T11:44:38.103Z,1.10
2023-07-20T11:49:43.754Z,1.10
2023-07-20T11:54:49.994Z,1.10
2023-07-20T12:00:05.962Z,1.20
2023-07-20T12:05:10.067Z,1.00
2023-07-20T12:10:13.870Z,1.50
2023-07-20T12:15:31.670Z,2.90
2023-07-20T12:20:41.020Z,2.10
2023-07-20T12:25:47.074Z,2.60
2023-07-20T12:30:57.873Z,1.30
2023-07-20T12:36:02.938Z,1.90
2023-07-20T12:41:06.353Z,1.40
2023-07-20T12:46:11.402Z,5.50
2023-07-20T12:51:14.889Z,2.80
2023-07-20T13:01:26.698Z,1.50
2023-07-20T13:06:30.668Z,1.00
2023-07-20T13:11:33.723Z,0.60
2023-07-20T13:16:37.339Z,2.20
2023-07-20T13:21:40.903Z,0.90
2023-07-20T13:26:44.407Z,0.80
2023-07-20T13:31:48.725Z,0.80
2023-07-20T13:36:53.516Z,0.80
2023-07-20T13:41:57.981Z,0.80
2023-07-20T13:57:17.236Z,1.40
2023-07-20T14:07:27.066Z,1.10
2023-07-20T14:12:30.448Z,0.90
2023-07-20T14:17:33.758Z,1.90
2023-07-20T14:22:38.203Z,1.50
2023-07-20T14:27:42.361Z,1.10
2023-07-20T14:32:50.795Z,1.10
2023-07-20T14:37:54.745Z,1.00
2023-07-20T14:42:58.673Z,1.20
2023-07-20T14:48:01.976Z,1.30
2023-07-20T14:53:06.998Z,1.10
2023-07-20T14:58:10.731Z,1.10
2023-07-20T15:03:14.192Z,1.10
2023-07-20T15:08:17.580Z,2.40
2023-07-20T15:13:20.969Z,1.30
2023-07-20T15:18:37.640Z,1.30
2023-07-20T15:23:47.558Z,1.20
2023-07-20T15:28:51.083Z,1.90
2023-07-20T15:33:54.723Z,1.00
2023-07-20T15:38:58.796Z,1.40
2023-07-20T15:44:04.202Z,1.20
2023-07-20T15:49:08.761Z,1.20
2023-07-20T15:54:12.748Z,1.20
2023-07-20T15:59:17.385Z,1.10
2023-07-20T16:04:21.320Z,1.30
2023-07-20T16:09:24.951Z,0.90
2023-07-20T16:14:28.473Z,1.10
2023-07-20T16:19:32.273Z,4.60
2023-07-20T16:24:36.158Z,1.10
2023-07-20T16:29:42.291Z,1.10
2023-07-20T16:34:49.467Z,1.50
2023-07-20T16:39:54.040Z,1.30
2023-07-20T16:44:57.637Z,1.40
2023-07-20T16:50:01.414Z,1.30
2023-07-20T16:55:06.320Z,1.20
2023-07-20T17:00:15.194Z,1.30
2023-07-20T17:05:20.024Z,1.10
2023-07-20T17:10:24.321Z,1.20
2023-07-20T17:15:27.635Z,3.20
2023-07-20T17:30:41.804Z,1.00
2023-07-20T17:35:45.222Z,1.10
2023-07-20T17:40:48.499Z,1.10
2023-07-20T17:45:52.251Z,1.10
2023-07-20T17:50:56.473Z,1.00
2023-07-20T17:56:00.732Z,1.30
2023-07-20T18:01:04.469Z,1.10
2023-07-20T18:06:08.754Z,1.40
2023-07-20T18:11:12.047Z,1.30
2023-07-20T18:16:15.692Z,1.00
2023-07-20T18:21:19.579Z,1.30
2023-07-20T18:26:23.307Z,3.00
2023-07-20T18:31:27.258Z,1.40
2023-07-20T18:36:31.481Z,1.70
2023-07-20T18:41:35.179Z,2.40
2023-07-20T18:46:39.317Z,2.00
2023-07-20T18:51:43.295Z,1.40
2023-07-20T18:56:47.241Z,8.40
2023-07-20T19:01:50.752Z,5.00
2023-07-20T19:06:55.846Z,6.80
2023-07-20T19:11:59.242Z,5.60
2023-07-20T19:17:03.085Z,3.30
2023-07-20T19:22:06.889Z,5.80
2023-07-20T19:27:10.423Z,3.80
2023-07-20T19:32:14.745Z,2.30
2023-07-20T19:37:18.050Z,2.50
2023-07-20T19:42:24.880Z,1.90
2023-07-20T19:47:29.217Z,6.20
2023-07-20T19:52:33.394Z,3.30
2023-07-20T19:57:40.573Z,1.90
2023-07-20T20:07:51.634Z,1.70
2023-07-20T20:12:54.955Z,2.80
2023-07-20T20:18:00.963Z,1.60
2023-07-20T20:23:17.764Z,2.20
2023-07-20T20:28:21.484Z,2.00
2023-07-20T20:33:26.278Z,2.30
2023-07-20T20:38:30.545Z,4.00
2023-07-20T20:43:33.758Z,2.10
2023-07-20T20:48:38.963Z,4.20
2023-07-20T20:53:43.351Z,3.10
2023-07-20T20:58:47.680Z,3.40
2023-07-20T21:03:51.310Z,3.20
2023-07-20T21:08:55.429Z,3.10
2023-07-20T21:13:59.770Z,2.40
2023-07-20T21:19:04.017Z,2.40
2023-07-20T21:24:07.317Z,2.40
2023-07-20T21:29:10.510Z,2.70
2023-07-20T21:34:13.728Z,6.50
2023-07-20T21:39:17.054Z,4.20
2023-07-20T21:44:20.447Z,2.70
2023-07-20T21:49:23.549Z,4.60
2023-07-20T21:59:30.072Z,2.30
2023-07-20T22:04:33.731Z,6.40
2023-07-20T22:09:38.020Z,3.00
2023-07-20T22:14:43.144Z,3.40
2023-07-20T22:19:46.396Z,4.90
2023-07-20T22:24:49.629Z,4.40
2023-07-20T22:29:53.220Z,25.40
2023-07-20T22:34:58.104Z,10.50
2023-07-20T22:40:01.319Z,6.30
2023-07-20T22:45:07.889Z,5.30
2023-07-20T22:50:12.198Z,5.30
2023-07-20T22:55:15.605Z,5.50
2023-07-20T23:00:25.573Z,5.70
2023-07-20T23:05:29.193Z,3.20
2023-07-20T23:10:32.709Z,4.00
2023-07-20T23:15:37.040Z,3.40
2023-07-20T23:20:40.366Z,6.00
2023-07-20T23:25:44.069Z,6.30
2023-07-20T23:30:51.171Z,4.30
2023-07-20T23:35:54.479Z,5.60
2023-07-20T23:40:57.888Z,4.60
2023-07-20T23:46:04.000Z,6.10
2023-07-20T23:51:11.068Z,5.40
2023-07-20T23:56:17.980Z,3.60
